Time;durP1;ratioP1;P1;durP2;ratioP2;P2;SDS_P1;SDS_P2;PMS_P1;PMS_P2;Temp;Humidity;BMP_temperature;BMP_pressure;BME280_temperature;BME280_humidity;BME280_pressure;Samples;Min_cycle;Max_cycle;Signal;HPM_P1;HPM_P2
2021/12/24 00:00:18;;;;;;;;;;;;;;;0.12;77.33;95954.19;10287035;28;97071;-66
2021/12/24 00:05:21;;;;;;;12.20;7.10;;;;;;;0.15;77.29;95954.00;10289685;28;97097;-66
2021/12/24 00:10:25;;;;;;;8.85;6.28;;;;;;;0.21;76.59;95943.38;10291319;28;96852;-66
2021/12/24 00:15:50;;;;;;;14.38;7.55;;;;;;;0.23;76.93;95947.47;10287249;28;97077;-66
2021/12/24 00:37:12;;;;;;;9.27;5.25;;;;;;;0.64;74.75;95922.78;10051153;28;97232;-66
2021/12/24 00:42:15;;;;;;;10.85;6.90;;;;;;;0.63;74.33;95918.53;10047644;28;97805;-66
2021/12/24 00:47:19;;;;;;;8.75;5.32;;;;;;;0.76;73.84;95921.19;10050692;28;99437;-66
2021/12/24 00:52:44;;;;;;;8.18;4.88;;;;;;;0.87;73.74;95908.47;10046696;28;99165;-66
2021/12/24 00:57:47;;;;;;;8.73;5.53;;;;;;;1.06;73.04;95895.28;10046181;28;96915;-66
2021/12/24 01:02:54;;;;;;;9.48;5.13;;;;;;;1.06;73.28;95890.13;10145118;28;97137;-66
2021/12/24 01:07:57;;;;;;;7.00;4.93;;;;;;;0.99;73.52;95884.53;10240533;28;96854;-66
2021/12/24 01:13:00;;;;;;;8.73;5.18;;;;;;;0.99;73.72;95886.31;10291408;28;97270;-66
2021/12/24 01:18:11;;;;;;;8.10;5.47;;;;;;;0.77;73.78;95890.22;10291610;28;96942;-66
2021/12/24 01:23:35;;;;;;;7.97;5.55;;;;;;;0.82;73.74;95886.53;10289060;28;96908;-66
2021/12/24 01:28:50;;;;;;;8.13;5.35;;;;;;;0.89;73.28;95892.94;10290908;28;97311;-66
2021/12/24 01:39:21;;;;;;;8.77;5.38;;;;;;;0.95;72.98;95859.94;10288242;28;97162;-66
2021/12/24 01:44:27;;;;;;;7.25;4.53;;;;;;;1.02;72.62;95856.97;10290082;28;96742;-66
2021/12/24 01:49:31;;;;;;;8.52;4.72;;;;;;;1.07;72.39;95854.94;10287405;28;96880;-66
2021/12/24 01:54:34;;;;;;;7.85;4.60;;;;;;;1.09;72.79;95856.50;10288967;28;98597;-66
2021/12/24 01:59:37;;;;;;;8.13;4.90;;;;;;;1.13;72.30;95846.81;10289256;28;97019;-66
2021/12/24 02:04:42;;;;;;;8.60;5.18;;;;;;;1.12;73.21;95840.03;10287691;28;98433;-65
2021/12/24 02:09:44;;;;;;;8.52;5.20;;;;;;;1.11;73.64;95822.97;10287186;28;96925;-66
2021/12/24 02:14:51;;;;;;;8.38;5.40;;;;;;;1.06;73.87;95817.28;10277160;28;96879;-66
2021/12/24 02:30:36;;;;;;;7.72;4.18;;;;;;;1.15;73.21;95793.53;10285210;28;97367;-66
2021/12/24 02:35:40;;;;;;;7.20;4.82;;;;;;;1.15;72.70;95793.53;10277792;28;97853;-66
2021/12/24 02:40:44;;;;;;;8.32;4.85;;;;;;;1.17;72.97;95797.66;10278155;28;99539;-66
2021/12/24 02:45:49;;;;;;;8.60;5.13;;;;;;;1.16;72.59;95793.41;10275319;28;99516;-66
2021/12/24 02:56:33;;;;;;;8.38;4.57;;;;;;;1.20;72.59;95777.78;10242877;28;99698;-66
2021/12/24 03:01:40;;;;;;;8.30;4.72;;;;;;;1.23;72.25;95764.72;10244883;28;98791;-66
2021/12/24 03:06:47;;;;;;;5.70;4.35;;;;;;;1.19;72.63;95764.06;10240411;28;99192;-66
2021/12/24 03:11:52;;;;;;;8.15;4.68;;;;;;;1.11;73.16;95769.75;10239622;28;97009;-66
2021/12/24 03:16:58;;;;;;;7.18;4.72;;;;;;;1.09;73.28;95758.75;10238977;28;97054;-66
2021/12/24 03:22:13;;;;;;;7.45;4.70;;;;;;;1.09;72.75;95747.63;10239952;28;99630;-66
2021/12/24 03:27:16;;;;;;;8.47;4.57;;;;;;;1.08;73.01;95754.50;10279530;28;96905;-66
2021/12/24 03:32:19;;;;;;;9.38;4.85;;;;;;;1.08;72.60;95751.94;10291382;28;96876;-66
2021/12/24 03:37:23;;;;;;;7.88;4.97;;;;;;;1.13;72.22;95752.44;10293479;28;98049;-66
2021/12/24 03:42:26;;;;;;;8.65;4.93;;;;;;;1.15;72.15;95748.03;10292608;28;96908;-66
2021/12/24 03:47:34;;;;;;;9.13;5.00;;;;;;;1.13;71.78;95733.63;10287851;28;96898;-66
2021/12/24 03:53:01;;;;;;;8.90;4.47;;;;;;;1.11;72.17;95736.31;10290761;28;97714;-66
2021/12/24 03:58:03;;;;;;;8.57;5.03;;;;;;;1.09;71.49;95722.72;10288488;28;99164;-66
2021/12/24 04:03:06;;;;;;;6.45;4.18;;;;;;;1.09;71.49;95722.72;10286082;28;96824;-66
2021/12/24 04:08:11;;;;;;;6.85;4.25;;;;;;;1.12;70.20;95711.38;10295332;28;96859;-65
2021/12/24 04:13:15;;;;;;;6.13;3.80;;;;;;;1.14;70.29;95715.53;10293643;28;97006;-66
2021/12/24 04:18:23;;;;;;;6.32;3.83;;;;;;;1.12;70.47;95716.53;10289183;28;96767;-66
2021/12/24 04:28:44;;;;;;;6.80;3.97;;;;;;;1.21;70.01;95709.94;10249338;28;96900;-66
2021/12/24 04:33:49;;;;;;;6.50;4.00;;;;;;;1.18;70.30;95700.69;10243402;28;97075;-66
2021/12/24 04:39:21;;;;;;;6.32;3.80;;;;;;;1.21;70.43;95700.50;10240527;28;96896;-65
2021/12/24 05:06:01;;;;;;;7.28;3.72;;;;;;;1.71;68.46;95697.94;10174582;28;97290;-65
2021/12/24 05:11:10;;;;;;;5.78;3.92;;;;;;;1.72;68.19;95690.09;10200015;28;97212;-66
2021/12/24 05:16:22;;;;;;;7.63;4.78;;;;;;;1.66;68.44;95682.81;10202863;28;97456;-66
2021/12/24 05:21:33;;;;;;;8.93;4.70;;;;;;;1.64;68.94;95686.44;10206593;28;97021;-66
2021/12/24 05:26:38;;;;;;;8.77;5.07;;;;;;;1.68;68.79;95690.44;10264075;28;98697;-66
2021/12/24 05:31:41;;;;;;;8.93;5.15;;;;;;;1.69;69.25;95685.16;10287790;28;99078;-66
2021/12/24 05:36:44;;;;;;;7.00;3.90;;;;;;;1.65;69.40;95683.75;10292715;28;96809;-66
2021/12/24 05:41:48;;;;;;;6.25;3.38;;;;;;;1.76;68.75;95680.41;10288150;28;96865;-66
2021/12/24 05:46:51;;;;;;;4.45;3.00;;;;;;;1.96;68.46;95686.75;10291853;28;96835;-66
2021/12/24 05:51:54;;;;;;;4.65;3.05;;;;;;;2.06;68.30;95672.28;10294410;28;97882;-66
2021/12/24 05:56:59;;;;;;;4.45;2.80;;;;;;;2.13;68.01;95668.34;10283116;28;99015;-66
2021/12/24 06:02:02;;;;;;;4.80;2.90;;;;;;;2.16;67.62;95662.13;10292867;28;96985;-66
2021/12/24 06:07:05;;;;;;;3.58;2.53;;;;;;;2.26;67.66;95673.41;10299113;28;96742;-66
2021/12/24 06:12:10;;;;;;;4.45;2.88;;;;;;;2.26;67.68;95680.34;10290520;28;98649;-66
2021/12/24 06:17:16;;;;;;;5.25;3.00;;;;;;;2.35;67.03;95691.75;10290048;28;97720;-66
2021/12/24 06:22:19;;;;;;;6.40;3.47;;;;;;;2.34;67.67;95679.78;10286503;28;96771;-66
2021/12/24 06:27:23;;;;;;;4.82;2.78;;;;;;;2.41;67.40;95675.84;10288834;28;96711;-66
2021/12/24 06:32:26;;;;;;;7.40;3.80;;;;;;;2.47;66.86;95670.22;10272772;28;96733;-66
2021/12/24 06:37:29;;;;;;;5.50;3.40;;;;;;;2.52;66.53;95668.13;10290549;28;96880;-66
2021/12/24 06:42:33;;;;;;;7.88;3.90;;;;;;;2.62;66.41;95666.53;10288529;28;96885;-66
2021/12/24 06:47:36;;;;;;;4.68;3.55;;;;;;;2.69;65.89;95667.72;10290313;28;96955;-66
2021/12/24 06:52:39;;;;;;;8.13;4.55;;;;;;;2.73;65.54;95660.56;10288071;28;97213;-66
2021/12/24 06:57:45;;;;;;;6.10;3.60;;;;;;;2.77;65.34;95661.16;10292119;28;98793;-66
2021/12/24 07:02:48;;;;;;;5.00;3.40;;;;;;;2.81;66.06;95668.56;10289448;28;99955;-66
2021/12/24 07:07:51;;;;;;;5.38;3.40;;;;;;;2.83;65.20;95673.63;10293197;28;96807;-66
2021/12/24 07:12:56;;;;;;;6.38;3.50;;;;;;;2.76;65.74;95687.91;10288354;28;98707;-66
2021/12/24 07:17:59;;;;;;;5.38;3.53;;;;;;;2.74;65.09;95682.84;10287270;28;100017;-66
2021/12/24 07:23:02;;;;;;;5.80;3.78;;;;;;;2.77;65.28;95671.47;10297129;28;97229;-66
2021/12/24 07:28:06;;;;;;;4.63;3.63;;;;;;;2.78;65.36;95668.78;10289882;28;98182;-66
2021/12/24 07:33:09;;;;;;;4.47;3.43;;;;;;;2.80;65.14;95672.06;10288152;28;96945;-66
2021/12/24 07:38:13;;;;;;;4.30;2.90;;;;;;;2.72;66.46;95668.41;10296323;28;98523;-66
2021/12/24 07:43:17;;;;;;;4.75;3.30;;;;;;;2.76;66.99;95660.34;10294586;28;96920;-66
2021/12/24 07:48:27;;;;;;;4.93;3.17;;;;;;;2.89;66.03;95660.25;10289946;28;96822;-66
2021/12/24 07:53:30;;;;;;;5.18;3.00;;;;;;;3.01;65.74;95661.91;10278470;28;96874;-66
2021/12/24 07:58:34;;;;;;;5.22;2.67;;;;;;;3.03;66.15;95678.13;10291588;28;97063;-66
2021/12/24 08:03:37;;;;;;;5.07;2.83;;;;;;;3.05;66.49;95658.16;10289387;28;98793;-66
2021/12/24 08:08:40;;;;;;;5.18;2.90;;;;;;;3.17;65.30;95659.00;10287308;28;97755;-66
2021/12/24 08:13:45;;;;;;;8.27;2.85;;;;;;;3.22;65.50;95661.22;10292526;28;99008;-66
2021/12/24 08:18:50;;;;;;;4.03;2.88;;;;;;;3.30;65.14;95658.88;10273684;28;99273;-66
2021/12/24 08:23:53;;;;;;;10.90;6.18;;;;;;;3.33;65.46;95663.81;10279570;28;98492;-66
2021/12/24 08:28:58;;;;;;;5.18;3.00;;;;;;;3.39;64.30;95659.94;10284307;28;96917;-66
2021/12/24 08:34:01;;;;;;;7.07;4.57;;;;;;;3.36;64.23;95648.09;10289803;28;97150;-66
2021/12/24 08:39:04;;;;;;;7.30;4.57;;;;;;;3.45;64.09;95639.63;10272457;28;97860;-66
2021/12/24 08:44:09;;;;;;;7.55;4.88;;;;;;;3.61;63.80;95625.53;10286178;28;96955;-66
2021/12/24 08:49:12;;;;;;;7.97;5.20;;;;;;;3.73;63.44;95632.31;10298178;28;98243;-66
2021/12/24 08:54:15;;;;;;;7.15;5.10;;;;;;;3.72;63.74;95633.25;10284666;28;96903;-66
2021/12/24 08:59:20;;;;;;;8.43;5.40;;;;;;;3.82;64.12;95623.81;10288202;28;98644;-66
2021/12/24 09:04:23;;;;;;;27.58;15.45;;;;;;;3.92;65.13;95628.28;10282972;28;99238;-66
2021/12/24 09:09:27;;;;;;;5.90;4.00;;;;;;;3.94;64.78;95616.06;10282239;28;96825;-66
2021/12/24 09:14:32;;;;;;;8.50;5.38;;;;;;;4.06;64.95;95607.31;10284905;28;97126;-66
2021/12/24 09:19:35;;;;;;;14.32;8.75;;;;;;;4.06;65.47;95620.25;10284523;28;96876;-66
2021/12/24 09:24:38;;;;;;;8.85;6.30;;;;;;;4.04;66.01;95604.03;10283730;28;96788;-66
2021/12/24 09:29:43;;;;;;;10.65;7.28;;;;;;;4.18;65.68;95601.16;10291839;28;96850;-66
2021/12/24 09:34:45;;;;;;;8.55;5.93;;;;;;;4.30;65.24;95611.44;10292510;28;96804;-66
2021/12/24 09:39:49;;;;;;;6.63;5.20;;;;;;;4.41;66.26;95611.41;10289983;28;96860;-66
2021/12/24 09:44:53;;;;;;;6.78;4.40;;;;;;;4.42;67.27;95607.88;10294558;28;97081;-66
2021/12/24 09:49:56;;;;;;;5.47;3.15;;;;;;;4.53;66.60;95594.06;10294658;28;97680;-66
2021/12/24 09:55:07;;;;;;;4.95;3.28;;;;;;;4.58;67.16;95590.13;10292766;28;98435;-66
2021/12/24 10:00:15;;;;;;;3.67;2.55;;;;;;;4.63;66.96;95583.75;10291788;28;96954;-66
2021/12/24 10:05:28;;;;;;;4.03;2.33;;;;;;;4.74;66.73;95589.69;10287421;28;98591;-66
2021/12/24 10:10:36;;;;;;;2.92;1.92;;;;;;;4.80;66.14;95578.00;10297017;28;97012;-66
2021/12/24 10:15:52;;;;;;;3.47;1.77;;;;;;;4.90;66.48;95575.47;10289587;28;98636;-66
2021/12/24 10:21:00;;;;;;;4.00;2.10;;;;;;;5.02;66.01;95565.84;10290148;28;96975;-66
2021/12/24 10:26:11;;;;;;;5.00;3.00;;;;;;;5.17;65.50;95554.19;10294059;28;97731;-66
2021/12/24 10:31:18;;;;;;;4.07;2.60;;;;;;;5.33;64.62;95554.50;10299168;28;98028;-66
2021/12/24 10:36:21;;;;;;;4.45;2.25;;;;;;;5.49;64.28;95558.34;10290644;28;97238;-66
2021/12/24 10:41:24;;;;;;;5.25;2.15;;;;;;;5.67;63.34;95563.69;10295046;28;97472;-66
2021/12/24 10:46:29;;;;;;;3.55;2.53;;;;;;;5.82;63.18;95548.59;10288269;28;98316;-66
2021/12/24 10:51:54;;;;;;;3.13;2.08;;;;;;;5.96;63.71;95548.19;10293226;28;97957;-66
2021/12/24 10:57:16;;;;;;;5.53;3.55;;;;;;;6.06;63.82;95545.59;10285017;28;96867;-66
2021/12/24 11:02:23;;;;;;;6.03;3.42;;;;;;;6.25;63.95;95542.19;10289583;28;96848;-66
2021/12/24 11:07:34;;;;;;;4.43;2.55;;;;;;;6.42;63.55;95525.91;10291173;28;98064;-66
2021/12/24 11:12:39;;;;;;;3.45;2.40;;;;;;;6.60;64.11;95528.59;10290973;28;97010;-67
2021/12/24 11:17:43;;;;;;;4.67;2.30;;;;;;;6.69;64.92;95519.13;10293913;28;98915;-66
2021/12/24 11:22:59;;;;;;;6.03;3.00;;;;;;;6.86;66.18;95507.19;10286684;28;99018;-78
2021/12/24 11:28:03;;;;;;;4.72;2.20;;;;;;;7.16;64.91;95500.94;10281258;28;97836;-77
2021/12/24 11:33:14;;;;;;;3.58;2.00;;;;;;;7.37;65.40;95500.69;10279273;28;97238;-77
2021/12/24 11:38:20;;;;;;;3.13;1.98;;;;;;;7.52;64.18;95489.78;10290297;28;96897;-77
2021/12/24 11:43:28;;;;;;;3.53;1.98;;;;;;;7.55;65.21;95487.72;10283898;28;100303;-77
2021/12/24 11:48:33;;;;;;;3.90;2.00;;;;;;;7.82;64.08;95488.59;10288058;28;97055;-77
2021/12/24 11:53:36;;;;;;;;;;;;;;;8.04;64.19;95478.72;10280365;28;100801;-78
2021/12/24 11:58:43;;;;;;;4.25;2.15;;;;;;;8.05;64.85;95467.31;10288209;28;98853;-77
2021/12/24 12:03:51;;;;;;;4.45;1.98;;;;;;;8.06;65.01;95468.97;10284011;28;98269;-77
2021/12/24 12:08:55;;;;;;;2.35;1.50;;;;;;;8.02;65.21;95457.25;10282494;28;98746;-77
2021/12/24 12:14:01;;;;;;;3.47;2.08;;;;;;;7.94;65.68;95465.78;10300368;28;96791;-79
2021/12/24 12:19:16;;;;;;;3.33;1.60;;;;;;;7.93;66.92;95456.38;10281055;28;96829;-77
2021/12/24 12:29:44;;;;;;;6.13;2.15;;;;;;;8.17;65.42;95455.75;10270853;28;96931;-77
2021/12/24 12:35:01;;;;;;;3.42;2.25;;;;;;;8.16;65.45;95449.69;10295539;28;97742;-77
2021/12/24 12:40:26;;;;;;;3.92;2.33;;;;;;;8.15;65.63;95442.88;10294524;28;96832;-77
2021/12/24 12:45:55;;;;;;;2.80;2.30;;;;;;;8.11;63.91;95430.31;10275715;28;96856;-77
2021/12/24 12:51:00;;;;;;;3.28;2.03;;;;;;;8.03;64.40;95425.03;10281207;28;98076;-77
2021/12/24 12:56:14;;;;;;;3.55;2.20;;;;;;;8.09;64.76;95421.84;10287177;28;96823;-77
2021/12/24 13:01:19;;;;;;;2.60;1.63;;;;;;;8.19;63.82;95429.53;10282648;28;97426;-77
2021/12/24 13:06:26;;;;;;;4.80;2.30;;;;;;;8.31;63.59;95436.97;10283777;28;96771;-77
2021/12/24 13:11:35;;;;;;;3.08;1.80;;;;;;;8.32;61.94;95428.16;10270425;28;100365;-77
2021/12/24 13:16:44;;;;;;;4.78;2.17;;;;;;;8.27;63.77;95420.00;10286961;28;96867;-77
2021/12/24 13:27:19;;;;;;;4.68;2.42;;;;;;;8.14;63.04;95417.81;10290016;28;98303;-77
2021/12/24 13:32:22;;;;;;;4.50;2.20;;;;;;;8.09;63.08;95401.03;10290576;28;97147;-77
2021/12/24 13:37:32;;;;;;;3.45;2.40;;;;;;;8.00;65.50;95401.97;10290433;28;98062;-77
2021/12/24 13:42:42;;;;;;;3.42;2.03;;;;;;;7.96;65.37;95397.06;10291533;28;96926;-77
2021/12/24 13:47:55;;;;;;;2.85;2.10;;;;;;;7.93;65.94;95386.16;10288451;28;96821;-77
2021/12/24 13:58:29;;;;;;;3.58;2.33;;;;;;;8.05;63.71;95389.28;10280877;28;96919;-77
2021/12/24 14:03:34;;;;;;;3.55;2.05;;;;;;;8.04;64.12;95385.88;10281466;28;96911;-77
2021/12/24 14:08:39;;;;;;;3.55;2.05;;;;;;;8.00;63.61;95396.75;10280917;28;96875;-78
2021/12/24 14:13:51;;;;;;;2.72;2.13;;;;;;;8.00;63.12;95381.97;10285347;28;97784;-78
2021/12/24 14:19:09;;;;;;;3.35;2.22;;;;;;;7.97;63.23;95388.28;10285834;28;98537;-78
2021/12/24 14:24:33;;;;;;;5.57;2.95;;;;;;;7.92;63.63;95385.31;10301344;28;96847;-79
2021/12/24 14:29:39;;;;;;;3.80;2.42;;;;;;;7.86;65.31;95398.94;10277327;28;97688;-78
2021/12/24 14:34:46;;;;;;;3.97;2.20;;;;;;;7.82;66.49;95387.19;10289225;28;96966;-77
2021/12/24 14:39:53;;;;;;;4.43;2.67;;;;;;;7.81;67.22;95372.56;10284912;28;96908;-78
2021/12/24 14:45:12;;;;;;;3.83;1.98;;;;;;;7.83;66.52;95382.81;10284549;28;98176;-78
2021/12/24 14:50:15;;;;;;;3.65;2.40;;;;;;;7.80;66.43;95383.94;10304596;28;97624;-77
2021/12/24 14:55:23;;;;;;;6.55;3.35;;;;;;;7.78;67.23;95378.88;10286738;28;98358;-77
2021/12/24 15:00:32;;;;;;;8.02;3.22;;;;;;;7.73;68.35;95386.31;10286662;28;97302;-77
2021/12/24 15:05:38;;;;;;;4.20;2.67;;;;;;;7.73;68.99;95381.13;10291811;28;100488;-77
2021/12/24 15:11:02;;;;;;;13.45;6.75;;;;;;;7.69;69.59;95384.19;10285968;28;97694;-78
2021/12/24 15:16:05;;;;;;;10.07;5.47;;;;;;;7.67;68.72;95388.72;10283747;28;97123;-77
2021/12/24 15:21:09;;;;;;;7.25;4.20;;;;;;;7.68;69.10;95392.94;10306114;28;99017;-78
2021/12/24 15:26:14;;;;;;;15.52;8.98;;;;;;;7.62;69.54;95368.38;10289439;28;98621;-77
2021/12/24 15:31:18;;;;;;;8.65;4.93;;;;;;;7.55;69.36;95375.94;10294784;28;96930;-78
2021/12/24 15:36:21;;;;;;;5.47;3.25;;;;;;;7.49;70.29;95371.38;10294114;28;96933;-77
2021/12/24 15:41:25;;;;;;;9.27;6.95;;;;;;;7.47;69.88;95375.06;10288395;28;98625;-78
2021/12/24 15:46:29;;;;;;;7.00;4.68;;;;;;;7.39;70.12;95379.22;10280732;28;96969;-78
2021/12/24 15:51:32;;;;;;;5.53;3.80;;;;;;;7.37;71.35;95378.56;10298382;28;97221;-78
2021/12/24 15:56:38;;;;;;;5.63;4.07;;;;;;;7.29;72.38;95372.47;10278354;28;97621;-77
2021/12/24 16:01:41;;;;;;;5.47;3.40;;;;;;;7.25;71.71;95355.53;10285562;28;97648;-78
2021/12/24 16:06:44;;;;;;;5.30;3.25;;;;;;;7.18;71.62;95371.75;10283870;28;97211;-78
2021/12/24 16:11:48;;;;;;;4.97;3.15;;;;;;;7.10;70.79;95369.06;10285861;28;96656;-78
2021/12/24 16:16:51;;;;;;;4.03;3.30;;;;;;;7.06;70.88;95362.53;10287651;28;96881;-78
2021/12/24 16:21:54;;;;;;;4.03;2.40;;;;;;;6.96;71.51;95352.22;10284745;28;96892;-78
2021/12/24 16:26:58;;;;;;;4.38;2.60;;;;;;;6.93;71.16;95355.06;10284489;28;96859;-78
2021/12/24 16:32:03;;;;;;;4.53;3.05;;;;;;;6.87;71.35;95353.06;10298551;28;97064;-77
2021/12/24 16:37:05;;;;;;;7.45;4.10;;;;;;;6.77;71.02;95354.91;10293175;28;96899;-75
2021/12/24 16:42:11;;;;;;;5.95;4.35;;;;;;;6.65;71.69;95342.09;10289333;28;97613;-77
2021/12/24 16:47:16;;;;;;;6.80;4.60;;;;;;;6.59;72.20;95342.72;10288441;28;99217;-77
2021/12/24 16:52:20;;;;;;;6.88;4.28;;;;;;;6.55;73.52;95343.13;10282413;28;97338;-77
2021/12/24 16:57:24;;;;;;;5.82;3.47;;;;;;;6.58;74.16;95348.03;10287532;28;97769;-79
2021/12/24 17:02:27;;;;;;;4.70;3.10;;;;;;;6.61;73.68;95342.56;10276352;28;98645;-80
2021/12/24 17:07:30;;;;;;;6.18;3.20;;;;;;;6.66;73.69;95335.16;10296173;28;96839;-79
2021/12/24 17:12:36;;;;;;;14.00;9.35;;;;;;;6.65;73.39;95339.50;10283938;28;98507;-79
2021/12/24 17:17:39;;;;;;;14.02;7.63;;;;;;;6.59;73.98;95323.72;10271461;28;98154;-79
2021/12/24 17:22:43;;;;;;;7.43;5.05;;;;;;;6.51;73.91;95321.03;10281435;28;98610;-79
2021/12/24 17:27:49;;;;;;;7.20;4.60;;;;;;;6.45;74.35;95318.06;10277276;28;99041;-79
2021/12/24 17:32:52;;;;;;;5.50;3.40;;;;;;;6.38;75.18;95316.19;10283278;28;96895;-78
2021/12/24 17:37:55;;;;;;;6.25;3.60;;;;;;;6.38;74.62;95314.41;10287003;28;97050;-78
2021/12/24 17:42:59;;;;;;;6.25;3.65;;;;;;;6.35;75.15;95306.91;10281929;28;97658;-79
2021/12/24 17:48:02;;;;;;;5.63;3.43;;;;;;;6.31;75.13;95309.94;10277922;28;97235;-79
2021/12/24 17:53:05;;;;;;;7.25;4.50;;;;;;;6.33;74.43;95320.97;10286124;28;96986;-79
2021/12/24 17:58:10;;;;;;;7.82;6.38;;;;;;;6.26;74.31;95318.16;10280194;28;97566;-79
2021/12/24 18:03:13;;;;;;;9.52;5.68;;;;;;;6.24;74.24;95317.47;10289043;28;98574;-78
2021/12/24 18:08:16;;;;;;;7.80;5.53;;;;;;;6.25;74.21;95325.13;10305154;28;100980;-78
2021/12/24 18:13:23;;;;;;;6.95;4.78;;;;;;;6.26;74.30;95318.97;10313901;28;98831;-78
2021/12/24 18:18:26;;;;;;;7.47;4.93;;;;;;;6.31;74.23;95326.31;10289259;28;96991;-79
2021/12/24 18:23:29;;;;;;;7.70;5.53;;;;;;;6.35;73.84;95317.28;10281790;28;96712;-78
2021/12/24 18:28:33;;;;;;;9.48;6.20;;;;;;;6.31;73.41;95312.53;10301051;28;97006;-78
2021/12/24 18:33:36;;;;;;;9.03;6.73;;;;;;;6.21;73.34;95310.00;10298477;28;98520;-78
2021/12/24 18:38:40;;;;;;;14.02;9.43;;;;;;;6.17;73.33;95319.00;10305458;28;97168;-78
2021/12/24 18:43:46;;;;;;;9.95;7.22;;;;;;;6.14;73.01;95324.47;10308054;28;96890;-77
2021/12/24 18:48:49;;;;;;;;;;;;;;;6.04;73.14;95320.16;10295991;28;101237;-78
2021/12/24 18:53:52;;;;;;;8.13;6.05;;;;;;;5.97;73.26;95311.31;10298059;28;97177;-78
2021/12/24 18:58:57;;;;;;;7.15;5.20;;;;;;;5.99;73.91;95317.16;10291497;28;96925;-78
2021/12/24 19:04:01;;;;;;;6.67;5.10;;;;;;;5.99;74.28;95317.16;10301350;28;96859;-78
2021/12/24 19:09:07;;;;;;;9.02;5.47;;;;;;;5.97;74.47;95316.50;10292224;28;97129;-79
2021/12/24 19:14:11;;;;;;;15.15;10.13;;;;;;;5.92;74.37;95316.09;10293597;28;96902;-78
2021/12/24 19:19:15;;;;;;;18.58;11.60;;;;;;;5.81;74.17;95309.31;10303907;28;96995;-78
2021/12/24 19:24:19;;;;;;;12.93;8.75;;;;;;;5.68;74.98;95309.63;10291721;28;97180;-78
2021/12/24 19:29:26;;;;;;;12.07;8.30;;;;;;;5.61;75.21;95303.38;10293820;28;98121;-78
2021/12/24 19:34:29;;;;;;;8.63;6.18;;;;;;;5.53;75.61;95301.50;10293415;28;97742;-78
2021/12/24 19:39:32;;;;;;;12.35;7.32;;;;;;;5.50;75.56;95300.94;10294591;28;97246;-79
2021/12/24 19:44:36;;;;;;;9.88;6.55;;;;;;;5.41;75.69;95301.75;10289345;28;97913;-78
2021/12/24 19:49:39;;;;;;;8.75;6.50;;;;;;;5.37;75.55;95310.78;10287889;28;96988;-79
2021/12/24 19:54:42;;;;;;;10.63;7.05;;;;;;;5.30;75.20;95300.97;10289376;28;97638;-78
2021/12/24 19:59:46;;;;;;;13.45;8.48;;;;;;;5.25;75.58;95308.34;10286354;28;97154;-77
2021/12/24 20:04:49;;;;;;;11.88;8.23;;;;;;;5.26;75.02;95298.81;10286651;28;96904;-78
2021/12/24 20:09:52;;;;;;;11.60;7.10;;;;;;;5.24;75.35;95303.31;10289926;28;97029;-78
2021/12/24 20:14:57;;;;;;;11.85;6.97;;;;;;;5.23;75.13;95299.06;10290789;28;101345;-78
2021/12/24 20:20:00;;;;;;;10.18;7.00;;;;;;;5.27;75.15;95300.41;10296553;28;97038;-79
2021/12/24 20:25:06;;;;;;;88.80;42.97;;;;;;;5.29;74.91;95283.81;10292082;28;97532;-78
2021/12/24 20:30:14;;;;;;;17.50;10.38;;;;;;;5.27;75.09;95280.53;10285715;28;97470;-77
2021/12/24 20:35:17;;;;;;;17.13;11.38;;;;;;;5.29;74.82;95283.00;10302151;28;98566;-77
2021/12/24 20:40:22;;;;;;;6.65;4.80;;;;;;;5.29;74.81;95275.22;10294326;28;98535;-78
2021/12/24 20:45:26;;;;;;;8.67;5.40;;;;;;;5.31;75.07;95266.34;10291139;28;97002;-79
2021/12/24 20:50:36;;;;;;;7.63;5.13;;;;;;;5.39;74.64;95267.44;10295517;28;96820;-78
2021/12/24 20:55:41;;;;;;;9.63;6.88;;;;;;;5.40;74.53;95267.28;10290934;28;97360;-78
2021/12/24 21:00:45;;;;;;;9.00;6.30;;;;;;;5.42;74.29;95267.97;10282400;28;97051;-77
2021/12/24 21:05:49;;;;;;;13.30;10.57;;;;;;;5.37;74.52;95261.56;10280518;28;98005;-78
2021/12/24 21:10:53;;;;;;;13.00;9.10;;;;;;;5.28;74.66;95258.84;10292677;28;98427;-78
2021/12/24 21:15:57;;;;;;;8.93;6.72;;;;;;;5.18;74.45;95255.47;10290578;28;96923;-78
2021/12/24 21:21:00;;;;;;;8.90;5.88;;;;;;;4.98;74.87;95259.84;10293850;28;97118;-78
2021/12/24 21:26:05;;;;;;;9.10;5.72;;;;;;;4.91;75.03;95254.41;10286619;28;97208;-78
2021/12/24 21:31:10;;;;;;;9.88;7.00;;;;;;;4.83;75.13;95259.44;10295012;28;97583;-78
2021/12/24 21:36:14;;;;;;;13.48;8.60;;;;;;;4.72;75.22;95254.41;10282196;28;97314;-79
2021/12/24 21:41:17;;;;;;;12.73;9.15;;;;;;;4.65;75.81;95255.91;10289246;28;97599;-78
2021/12/24 21:46:22;;;;;;;18.90;11.60;;;;;;;4.56;75.45;95250.59;10288741;28;96916;-78
2021/12/24 21:51:26;;;;;;;19.83;12.95;;;;;;;4.50;75.45;95248.53;10299527;28;98486;-79
2021/12/24 21:56:29;;;;;;;14.90;10.05;;;;;;;4.47;75.88;95250.56;10301964;28;96784;-78
2021/12/24 22:01:33;;;;;;;17.23;11.45;;;;;;;4.29;76.12;95237.50;10289915;28;98039;-78
2021/12/24 22:11:56;;;;;;;15.93;10.25;;;;;;;4.08;76.39;95225.47;10290846;28;98578;-78
2021/12/24 22:17:01;;;;;;;16.30;11.02;;;;;;;4.04;76.21;95229.28;10291291;28;98543;-79
2021/12/24 22:22:14;;;;;;;18.45;11.70;;;;;;;4.02;76.25;95231.16;10288574;28;98638;-78
2021/12/24 22:27:17;;;;;;;16.13;11.18;;;;;;;3.98;76.76;95227.22;10292368;28;100855;-78
2021/12/24 22:32:22;;;;;;;23.95;14.48;;;;;;;3.97;75.89;95233.34;10297364;28;98428;-78
2021/12/24 22:37:25;;;;;;;27.98;18.13;;;;;;;3.89;76.51;95231.41;10306921;28;97768;-79
2021/12/24 22:42:28;;;;;;;23.25;15.48;;;;;;;3.90;76.45;95227.06;10297308;28;96911;-79
2021/12/24 22:47:33;;;;;;;23.33;15.98;;;;;;;3.82;76.45;95220.78;10292862;28;97063;-78
2021/12/24 22:52:41;;;;;;;22.48;15.70;;;;;;;3.81;76.36;95221.75;10293160;28;96806;-78
2021/12/24 22:57:46;;;;;;;20.50;15.10;;;;;;;3.74;76.79;95217.22;10296926;28;96758;-78
2021/12/24 23:02:50;;;;;;;21.52;14.95;;;;;;;3.45;77.96;95223.09;10291104;28;98621;-78
2021/12/24 23:07:53;;;;;;;24.38;15.13;;;;;;;3.33;77.49;95222.38;10290478;28;97169;-78
2021/12/24 23:12:56;;;;;;;22.38;14.52;;;;;;;3.37;77.31;95218.56;10291342;28;97020;-78
2021/12/24 23:18:00;;;;;;;21.80;14.15;;;;;;;3.39;77.92;95214.09;10288207;28;96975;-76
2021/12/24 23:23:05;;;;;;;21.58;14.18;;;;;;;3.32;77.39;95210.38;10297127;28;98693;-76
2021/12/24 23:28:09;;;;;;;20.02;13.18;;;;;;;3.29;76.95;95202.09;10299318;28;97526;-75
2021/12/24 23:33:13;;;;;;;25.35;15.68;;;;;;;3.20;76.97;95201.09;10293386;28;98688;-76
2021/12/24 23:38:16;;;;;;;18.60;12.77;;;;;;;3.14;77.57;95199.03;10311872;28;97514;-76
2021/12/24 23:43:23;;;;;;;18.50;12.30;;;;;;;3.06;78.09;95197.88;10296952;28;98817;-75
2021/12/24 23:48:30;;;;;;;12.40;7.10;;;;;;;2.98;77.49;95191.72;10294539;28;96867;-75
2021/12/24 23:53:33;;;;;;;15.57;9.35;;;;;;;2.79;78.03;95184.69;10285336;28;96871;-76
2021/12/24 23:58:38;;;;;;;12.90;9.50;;;;;;;2.75;78.95;95183.31;10289263;28;97328;-75
